Time;durP1;ratioP1;P1;durP2;ratioP2;P2;SDS_P1;SDS_P2;PMS_P1;PMS_P2;Temp;Humidity;BMP_temperature;BMP_pressure;BME280_temperature;BME280_humidity;BME280_pressure;Samples;Min_cycle;Max_cycle;Signal;HPM_P1;HPM_P2
2022/01/20 00:01:44;;;;;;;10.53;8.13;;;7.20;73.50;;;-142.21;100.00;112049.66;6278054;22;20252;-75
2022/01/20 00:04:26;;;;;;;9.67;8.50;;;7.10;74.60;;;-142.21;100.00;112049.66;6285975;22;20410;-77
2022/01/20 00:23:42;;;;;;;9.48;7.25;;;6.90;75.80;;;-142.21;100.00;112049.66;6276884;22;20379;-76
2022/01/20 00:26:12;;;;;;;8.23;7.33;;;6.80;75.80;;;-142.21;100.00;112049.66;6276633;22;20231;-76
2022/01/20 00:28:42;;;;;;;8.85;7.93;;;6.80;75.80;;;-142.21;100.00;112049.66;6277361;22;20391;-75
2022/01/20 00:31:32;;;;;;;9.70;7.38;;;6.80;76.10;;;-142.21;100.00;112049.66;6276613;22;20211;-76
2022/01/20 00:34:11;;;;;;;9.02;8.05;;;6.80;76.90;;;-142.21;100.00;112049.66;6277471;22;20633;-77
2022/01/20 00:39:26;;;;;;;10.00;7.78;;;6.80;76.40;;;-142.21;100.00;112049.66;6277012;22;20160;-75
2022/01/20 00:41:54;;;;;;;8.77;7.88;;;6.80;76.60;;;-142.21;100.00;112049.66;6276720;22;20251;-74
2022/01/20 00:44:22;;;;;;;7.25;6.53;;;6.80;76.10;;;-142.21;100.00;112049.66;6275999;22;20180;-76
2022/01/20 00:46:49;;;;;;;8.73;7.40;;;6.80;76.30;;;-142.21;100.00;112049.66;6276984;22;20172;-75
2022/01/20 00:49:17;;;;;;;8.38;7.20;;;6.90;76.30;;;-142.21;100.00;112049.66;6277059;22;20230;-74
2022/01/20 00:51:45;;;;;;;8.00;6.77;;;6.90;76.60;;;-142.21;100.00;112049.66;6276204;22;20222;-76
2022/01/20 00:54:12;;;;;;;8.70;7.20;;;6.90;76.00;;;-142.21;100.00;112049.66;6277224;22;21013;-75
2022/01/20 00:56:41;;;;;;;8.47;7.23;;;6.90;76.40;;;-142.21;100.00;112049.66;6276442;22;20190;-75
2022/01/20 00:59:08;;;;;;;10.13;8.57;;;6.90;76.30;;;-142.21;100.00;112049.66;6276648;22;21337;-75
2022/01/20 01:01:36;;;;;;;9.48;8.48;;;6.90;76.10;;;-142.21;100.00;112049.66;6276240;22;20392;-76
2022/01/20 01:04:03;;;;;;;8.77;7.80;;;6.90;76.50;;;-142.21;100.00;112049.66;6276945;22;20172;-76
2022/01/20 01:06:49;;;;;;;10.50;9.40;;;6.90;76.60;;;-142.21;100.00;112049.66;6250303;22;20606;-75
2022/01/20 01:09:17;;;;;;;8.68;7.72;;;6.90;76.30;;;-142.21;100.00;112049.66;6276775;22;20164;-75
2022/01/20 01:11:46;;;;;;;8.20;7.30;;;7.00;76.40;;;-142.21;100.00;112049.66;6249058;22;20643;-75
2022/01/20 01:14:16;;;;;;;9.05;7.40;;;7.00;76.10;;;-142.21;100.00;112049.66;6276720;22;20443;-75
2022/01/20 01:22:21;;;;;;;9.57;7.80;;;6.90;76.10;;;-142.21;100.00;112049.66;6275986;22;20675;-76
2022/01/20 01:24:53;;;;;;;9.05;8.15;;;6.90;76.10;;;-142.21;100.00;112049.66;6276531;22;20417;-75
2022/01/20 01:27:24;;;;;;;7.77;6.97;;;6.90;76.40;;;-142.21;100.00;112049.66;6276559;22;20168;-75
2022/01/20 01:30:07;;;;;;;8.20;7.10;;;6.90;76.60;;;-142.21;100.00;112049.66;6276079;22;20453;-75
2022/01/20 01:32:47;;;;;;;9.10;7.40;;;6.90;76.60;;;-142.21;100.00;112049.66;6276877;22;20411;-77
2022/01/20 01:35:15;;;;;;;9.73;8.27;;;6.90;76.30;;;-142.21;100.00;112049.66;6276279;22;20157;-74
2022/01/20 01:40:32;;;;;;;9.03;7.30;;;6.90;76.30;;;-142.21;100.00;112049.66;6276491;22;20426;-76
2022/01/20 01:43:11;;;;;;;9.37;8.37;;;6.90;76.70;;;-142.21;100.00;112049.66;6275906;22;20380;-74
2022/01/20 01:45:41;;;;;;;9.07;7.55;;;7.00;76.60;;;-142.21;100.00;112049.66;6276655;22;20421;-76
2022/01/20 01:48:09;;;;;;;8.38;7.20;;;7.00;76.90;;;-142.21;100.00;112049.66;6275853;22;20176;-75
2022/01/20 01:50:43;;;;;;;8.05;7.25;;;6.90;76.40;;;-142.21;100.00;112049.66;6275924;22;20176;-75
2022/01/20 01:53:10;;;;;;;9.83;7.90;;;7.00;76.70;;;-142.21;100.00;112049.66;6276007;22;20487;-76
2022/01/20 01:55:38;;;;;;;9.77;7.90;;;6.90;76.70;;;-142.21;100.00;112049.66;6276119;22;20944;-76
2022/01/20 01:58:07;;;;;;;7.83;6.93;;;6.90;76.80;;;-142.21;100.00;112049.66;6275945;22;20399;-74
2022/01/20 02:00:35;;;;;;;9.57;7.87;;;6.80;76.80;;;-142.21;100.00;112049.66;6276089;22;20426;-75
2022/01/20 02:03:02;;;;;;;9.10;7.80;;;6.80;76.90;;;-142.21;100.00;112049.66;6276009;22;20434;-75
2022/01/20 02:05:31;;;;;;;8.52;7.63;;;6.80;77.30;;;-142.21;100.00;112049.66;6275593;22;20533;-76
2022/01/20 02:08:24;;;;;;;8.50;7.33;;;6.80;77.00;;;-142.21;100.00;112049.66;6276440;22;20188;-75
2022/01/20 02:19:07;;;;;;;8.70;7.70;;;6.90;77.00;;;-142.21;100.00;112049.66;6209391;22;20211;-75
2022/01/20 02:21:46;;;;;;;8.35;7.47;;;6.90;76.90;;;-142.21;100.00;112049.66;6275340;22;20395;-75
2022/01/20 02:24:13;;;;;;;8.07;7.27;;;6.80;77.20;;;-142.21;100.00;112049.66;6276335;22;20645;-77
2022/01/20 02:26:41;;;;;;;7.80;6.97;;;6.90;77.00;;;-142.21;100.00;112049.66;6274857;22;20410;-75
2022/01/20 02:29:08;;;;;;;7.40;6.63;;;6.90;77.10;;;-142.21;100.00;112049.66;6276257;22;20896;-75
2022/01/20 02:31:36;;;;;;;8.03;7.23;;;6.90;76.90;;;-142.21;100.00;112049.66;6274942;22;20208;-76
2022/01/20 02:34:04;;;;;;;9.90;8.37;;;7.00;77.00;;;-142.21;100.00;112049.66;6275695;22;20469;-76
2022/01/20 02:36:36;;;;;;;8.97;8.07;;;7.00;76.70;;;-142.21;100.00;112049.66;6276076;22;20395;-75
2022/01/20 02:39:11;;;;;;;7.87;7.07;;;7.10;76.50;;;-142.21;100.00;112049.66;6275220;22;20868;-76
2022/01/20 02:47:14;;;;;;;7.20;6.50;;;7.10;76.50;;;-142.21;100.00;112049.66;6275596;22;20395;-75
2022/01/20 02:49:42;;;;;;;6.83;6.03;;;7.10;76.30;;;-142.21;100.00;112049.66;6275800;22;20445;-75
2022/01/20 02:52:09;;;;;;;10.75;9.68;;;7.10;76.40;;;-142.21;100.00;112049.66;6275292;22;20775;-77
2022/01/20 02:54:38;;;;;;;8.03;6.90;;;7.10;76.70;;;-142.21;100.00;112049.66;6275434;22;20228;-77
2022/01/20 02:57:06;;;;;;;7.85;6.90;;;7.10;76.50;;;-142.21;100.00;112049.66;6275364;22;20414;-75
2022/01/20 02:59:40;;;;;;;7.43;6.72;;;7.10;76.50;;;-142.21;100.00;112049.66;6275797;22;20467;-74
2022/01/20 03:02:09;;;;;;;7.55;6.75;;;7.20;76.50;;;-142.21;100.00;112049.66;6248348;22;20161;-76
2022/01/20 03:04:43;;;;;;;7.60;6.23;;;7.20;76.00;;;-142.21;100.00;112049.66;6274844;22;20177;-75
2022/01/20 03:07:10;;;;;;;7.30;6.50;;;7.20;76.10;;;-142.21;100.00;112049.66;6275253;22;20396;-75
2022/01/20 03:09:39;;;;;;;8.10;7.30;;;7.20;76.00;;;-142.21;100.00;112049.66;6275160;22;20403;-75
2022/01/20 03:12:08;;;;;;;7.65;6.70;;;7.20;76.10;;;-142.21;100.00;112049.66;6274758;22;20403;-76
2022/01/20 03:14:38;;;;;;;6.70;6.07;;;7.20;76.00;;;-142.21;100.00;112049.66;6276028;22;20196;-77
2022/01/20 03:17:05;;;;;;;7.10;6.40;;;7.20;75.90;;;-142.21;100.00;112049.66;6274963;22;20949;-77
2022/01/20 03:19:33;;;;;;;6.95;6.25;;;7.10;76.10;;;-142.21;100.00;112049.66;6275646;22;20399;-75
2022/01/20 03:22:00;;;;;;;6.73;6.03;;;7.20;76.30;;;-142.21;100.00;112049.66;6275425;22;20211;-75
2022/01/20 03:24:27;;;;;;;7.17;6.47;;;7.20;76.30;;;-142.21;100.00;112049.66;6274577;22;20474;-75
2022/01/20 03:26:56;;;;;;;7.25;6.55;;;7.20;76.30;;;-142.21;100.00;112049.66;6275341;22;20462;-75
2022/01/20 03:29:23;;;;;;;8.20;6.63;;;7.20;76.50;;;-142.21;100.00;112049.66;6275083;22;20215;-75
2022/01/20 03:31:50;;;;;;;8.53;6.10;;;7.20;76.40;;;-142.21;100.00;112049.66;6275144;22;20462;-75
2022/01/20 03:34:21;;;;;;;6.77;6.13;;;7.20;76.70;;;-142.21;100.00;112049.66;6274712;22;20442;-75
2022/01/20 03:36:48;;;;;;;7.80;6.50;;;7.20;77.20;;;-142.21;100.00;112049.66;6275456;22;20376;-76
2022/01/20 03:39:16;;;;;;;6.93;6.23;;;7.20;76.50;;;-142.21;100.00;112049.66;6274526;22;20395;-76
2022/01/20 03:41:43;;;;;;;7.10;6.40;;;7.20;76.70;;;-142.21;100.00;112049.66;6275560;22;20430;-77
2022/01/20 03:44:12;;;;;;;7.57;6.20;;;7.30;76.90;;;-142.21;100.00;112049.66;6275473;22;20435;-75
2022/01/20 03:46:40;;;;;;;6.55;5.93;;;7.30;76.70;;;-142.21;100.00;112049.66;6275015;22;20181;-75
2022/01/20 03:49:11;;;;;;;9.17;7.73;;;7.30;76.60;;;-142.21;100.00;112049.66;6275417;22;20172;-75
2022/01/20 03:51:38;;;;;;;7.40;6.60;;;7.30;76.60;;;-142.21;100.00;112049.66;6274726;22;20398;-75
2022/01/20 03:54:06;;;;;;;7.30;6.60;;;7.30;76.60;;;-142.21;100.00;112049.66;6275220;22;20197;-75
2022/01/20 03:56:39;;;;;;;8.20;6.30;;;7.30;76.60;;;-142.21;100.00;112049.66;6274852;22;20903;-75
2022/01/20 03:59:07;;;;;;;7.47;6.65;;;7.30;76.50;;;-142.21;100.00;112049.66;6275003;22;20457;-75
2022/01/20 04:01:36;;;;;;;7.63;6.83;;;7.30;76.50;;;-142.21;100.00;112049.66;6274798;22;20260;-81
2022/01/20 04:04:11;;;;;;;6.60;5.87;;;7.30;76.60;;;-142.21;100.00;112049.66;6275449;22;20391;-75
2022/01/20 04:06:38;;;;;;;7.32;6.50;;;7.30;77.00;;;-142.21;100.00;112049.66;6274647;22;20403;-76
2022/01/20 04:09:06;;;;;;;8.60;7.78;;;7.30;76.80;;;-142.21;100.00;112049.66;6275001;22;20256;-75
2022/01/20 04:11:33;;;;;;;8.13;7.13;;;7.20;77.60;;;-142.21;100.00;112049.66;6274707;22;20687;-74
2022/01/20 04:14:02;;;;;;;8.45;7.65;;;7.20;77.10;;;-142.21;100.00;112049.66;6275298;22;20192;-76
2022/01/20 04:16:53;;;;;;;8.75;7.38;;;7.20;77.20;;;-142.21;100.00;112049.66;6276652;22;20250;-75
2022/01/20 04:19:21;;;;;;;8.90;7.07;;;7.20;77.60;;;-142.21;100.00;112049.66;6277543;22;20161;-77
2022/01/20 04:21:48;;;;;;;8.88;7.15;;;7.20;77.20;;;-142.21;100.00;112049.66;6276191;22;20234;-74
2022/01/20 04:24:16;;;;;;;9.27;8.27;;;7.20;77.10;;;-142.21;100.00;112049.66;6277042;22;20177;-78
2022/01/20 04:26:50;;;;;;;8.48;7.55;;;7.10;77.20;;;-142.21;100.00;112049.66;6276938;22;20169;-75
2022/01/20 04:29:18;;;;;;;8.15;7.25;;;7.10;77.40;;;-142.21;100.00;112049.66;6277126;22;20188;-77
2022/01/20 04:31:48;;;;;;;8.90;7.15;;;7.20;77.10;;;-142.21;100.00;112049.66;6276347;22;20232;-75
2022/01/20 04:34:16;;;;;;;193.27;21.98;;;7.10;77.00;;;-142.21;100.00;112049.66;6278359;22;20207;-75
2022/01/20 04:36:52;;;;;;;11.00;7.85;;;7.20;77.90;;;-142.21;100.00;112049.66;6277902;22;20173;-75
2022/01/20 04:39:24;;;;;;;8.32;7.53;;;7.20;78.10;;;-142.21;100.00;112049.66;6299263;22;20178;-76
2022/01/20 04:41:52;;;;;;;9.57;7.77;;;7.20;77.70;;;-142.21;100.00;112049.66;6304443;22;20236;-76
2022/01/20 04:44:32;;;;;;;8.40;7.60;;;7.20;78.20;;;-142.21;100.00;112049.66;6282288;22;20935;-78
2022/01/20 04:47:10;;;;;;;8.63;7.57;;;7.10;77.20;;;-142.21;100.00;112049.66;6276362;22;20856;-76
2022/01/20 04:57:53;;;;;;;9.88;8.18;;;7.10;77.30;;;-142.21;100.00;112049.66;6254449;22;20159;-76
2022/01/20 05:00:21;;;;;;;10.65;8.38;;;7.00;77.50;;;-142.21;100.00;112049.66;6276707;22;20199;-75
2022/01/20 05:02:57;;;;;;;8.33;7.53;;;7.10;77.90;;;-142.21;100.00;112049.66;6276533;22;20207;-74
2022/01/20 05:05:24;;;;;;;10.57;9.47;;;7.10;78.00;;;-142.21;100.00;112049.66;6275118;22;20963;-76
2022/01/20 05:07:52;;;;;;;10.33;8.73;;;7.00;78.00;;;-142.21;100.00;112049.66;6276522;22;20395;-76
2022/01/20 05:10:19;;;;;;;9.18;8.23;;;7.10;78.40;;;-142.21;100.00;112049.66;6276195;22;20864;-76
2022/01/20 05:13:12;;;;;;;11.07;9.20;;;7.00;78.20;;;-142.21;100.00;112049.66;6276514;22;20169;-78
2022/01/20 05:15:41;;;;;;;10.63;9.20;;;7.00;78.10;;;-142.21;100.00;112049.66;6276875;22;20195;-75
2022/01/20 05:18:09;;;;;;;10.30;8.70;;;7.00;78.60;;;-142.21;100.00;112049.66;6276504;22;20187;-74
2022/01/20 05:20:37;;;;;;;9.88;8.48;;;7.10;78.30;;;-142.21;100.00;112049.66;6277042;22;20474;-75
2022/01/20 05:23:04;;;;;;;11.40;9.10;;;7.10;78.40;;;-142.21;100.00;112049.66;6276757;22;20172;-76
2022/01/20 05:25:31;;;;;;;12.30;9.77;;;7.10;78.30;;;-142.21;100.00;112049.66;6276363;22;20672;-76
2022/01/20 05:27:59;;;;;;;11.20;9.38;;;7.10;78.20;;;-142.21;100.00;112049.66;6276160;22;20450;-75
2022/01/20 05:30:26;;;;;;;10.93;9.57;;;7.10;78.20;;;-142.21;100.00;112049.66;6275873;22;20526;-75
2022/01/20 05:32:53;;;;;;;12.18;9.95;;;7.10;78.30;;;-142.21;100.00;112049.66;6276142;22;20254;-77
2022/01/20 05:35:22;;;;;;;10.25;9.10;;;7.10;78.30;;;-142.21;100.00;112049.66;6275554;22;20238;-79
2022/01/20 05:37:49;;;;;;;10.23;9.13;;;7.10;78.20;;;-142.21;100.00;112049.66;6276396;22;20687;-76
2022/01/20 05:40:16;;;;;;;11.17;9.57;;;7.20;78.20;;;-142.21;100.00;112049.66;6276411;22;20181;-75
2022/01/20 05:42:44;;;;;;;12.60;9.40;;;7.20;78.20;;;-142.21;100.00;112049.66;6275761;22;20460;-74
2022/01/20 05:45:13;;;;;;;10.37;9.03;;;7.20;78.10;;;-142.21;100.00;112049.66;6276310;22;20941;-74
2022/01/20 05:47:44;;;;;;;10.90;9.57;;;7.10;78.50;;;-142.21;100.00;112049.66;6275615;22;20410;-74
2022/01/20 05:50:13;;;;;;;10.43;8.73;;;7.10;78.40;;;-142.21;100.00;112049.66;6276256;22;20413;-76
2022/01/20 05:52:42;;;;;;;9.65;8.65;;;7.10;78.40;;;-142.21;100.00;112049.66;6275696;22;20184;-77
2022/01/20 05:55:12;;;;;;;9.35;8.27;;;7.20;78.00;;;-142.21;100.00;112049.66;6276164;22;20207;-76
2022/01/20 05:57:40;;;;;;;10.23;9.13;;;7.10;78.20;;;-142.21;100.00;112049.66;6275510;22;20192;-75
2022/01/20 06:00:12;;;;;;;10.52;8.95;;;7.10;77.90;;;-142.21;100.00;112049.66;6276146;22;20169;-75
2022/01/20 06:05:21;;;;;;;10.13;9.03;;;7.20;77.80;;;-142.21;100.00;112049.66;6274523;22;20211;-74
2022/01/20 06:07:50;;;;;;;10.55;8.95;;;7.30;78.50;;;-142.21;100.00;112049.66;6275505;22;20887;-77
2022/01/20 06:10:17;;;;;;;10.27;8.70;;;7.20;78.10;;;-142.21;100.00;112049.66;6276468;22;20173;-78
2022/01/20 06:12:45;;;;;;;9.32;8.32;;;7.30;77.80;;;-142.21;100.00;112049.66;6275820;22;20431;-77
2022/01/20 06:15:13;;;;;;;9.87;8.63;;;7.30;78.30;;;-142.21;100.00;112049.66;6276341;22;20279;-77
2022/01/20 06:17:42;;;;;;;10.33;8.77;;;7.30;78.00;;;-142.21;100.00;112049.66;6275930;22;20461;-75
2022/01/20 06:20:12;;;;;;;10.93;9.07;;;7.20;77.90;;;-142.21;100.00;112049.66;6275673;22;20789;-75
2022/01/20 06:22:40;;;;;;;11.18;9.02;;;7.20;78.20;;;-142.21;100.00;112049.66;6276097;22;20392;-75
2022/01/20 06:25:10;;;;;;;11.60;9.48;;;7.20;78.20;;;-142.21;100.00;112049.66;6275717;22;20251;-76
2022/01/20 06:27:37;;;;;;;11.40;9.20;;;7.20;78.00;;;-142.21;100.00;112049.66;6274204;22;20180;-75
2022/01/20 06:30:06;;;;;;;10.00;8.87;;;7.30;77.80;;;-142.21;100.00;112049.66;6274286;22;20569;-80
2022/01/20 06:32:40;;;;;;;12.57;10.13;;;7.30;77.80;;;-142.21;100.00;112049.66;6275215;22;20469;-79
2022/01/20 06:35:16;;;;;;;11.20;9.87;;;7.30;77.70;;;-142.21;100.00;112049.66;6273987;22;20493;-80
2022/01/20 06:37:43;;;;;;;11.33;10.13;;;7.30;78.00;;;-142.21;100.00;112049.66;6276191;22;20419;-78
2022/01/20 06:40:14;;;;;;;11.23;10.13;;;7.20;77.90;;;-142.21;100.00;112049.66;6274611;22;20464;-78
2022/01/20 06:42:41;;;;;;;11.25;10.07;;;7.20;78.30;;;-142.21;100.00;112049.66;6275731;22;20227;-81
2022/01/20 06:45:12;;;;;;;11.20;9.85;;;7.20;78.50;;;-142.21;100.00;112049.66;6274443;22;20487;-79
2022/01/20 06:47:41;;;;;;;12.87;10.17;;;7.20;78.90;;;-142.21;100.00;112049.66;6275329;22;20222;-79
2022/01/20 06:50:16;;;;;;;12.60;10.87;;;7.20;78.70;;;-142.21;100.00;112049.66;6273136;22;20442;-78
2022/01/20 06:52:44;;;;;;;13.05;11.13;;;7.30;78.80;;;-142.21;100.00;112049.66;6275431;22;20403;-78
2022/01/20 06:55:15;;;;;;;13.97;10.80;;;7.30;78.50;;;-142.21;100.00;112049.66;6273442;22;20203;-78
2022/01/20 06:57:43;;;;;;;13.40;10.50;;;7.30;78.80;;;-142.21;100.00;112049.66;6274709;22;20414;-79
2022/01/20 07:00:14;;;;;;;13.23;10.90;;;7.30;78.50;;;-142.21;100.00;112049.66;6273747;22;20457;-78
2022/01/20 07:02:43;;;;;;;11.50;10.20;;;7.30;78.80;;;-142.21;100.00;112049.66;6274692;22;20725;-75
2022/01/20 07:05:13;;;;;;;11.60;10.20;;;7.30;78.50;;;-142.21;100.00;112049.66;6275380;22;20395;-78
2022/01/20 07:07:41;;;;;;;12.15;10.52;;;7.40;78.40;;;-142.21;100.00;112049.66;6275540;22;20899;-77
2022/01/20 07:10:13;;;;;;;11.50;10.10;;;7.50;78.10;;;-142.21;100.00;112049.66;6275210;22;20238;-76
2022/01/20 07:12:42;;;;;;;14.00;11.07;;;7.50;78.00;;;-142.21;100.00;112049.66;6275265;22;20380;-77
2022/01/20 07:15:10;;;;;;;11.93;10.57;;;7.50;77.70;;;-142.21;100.00;112049.66;6274318;22;20250;-77
2022/01/20 07:17:37;;;;;;;12.40;10.53;;;7.50;77.80;;;-142.21;100.00;112049.66;6274069;22;20415;-79
2022/01/20 07:20:07;;;;;;;12.60;11.00;;;7.40;77.60;;;-142.21;100.00;112049.66;6276141;22;20403;-77
2022/01/20 07:22:34;;;;;;;15.70;11.88;;;7.50;78.00;;;-142.21;100.00;112049.66;6275006;22;20407;-76
2022/01/20 07:25:01;;;;;;;13.33;10.17;;;7.40;77.90;;;-142.21;100.00;112049.66;6274775;22;20239;-79
2022/01/20 07:27:30;;;;;;;12.20;10.90;;;7.40;78.00;;;-142.21;100.00;112049.66;6274952;22;20438;-75
2022/01/20 07:29:59;;;;;;;13.80;11.10;;;7.40;78.10;;;-142.21;100.00;112049.66;6275586;22;20437;-74
2022/01/20 07:32:26;;;;;;;14.32;10.55;;;7.50;78.00;;;-142.21;100.00;112049.66;6275017;22;20422;-74
2022/01/20 07:34:54;;;;;;;12.15;10.70;;;7.50;77.90;;;-142.21;100.00;112049.66;6275295;22;20560;-77
2022/01/20 07:37:21;;;;;;;11.57;10.23;;;7.50;77.90;;;-142.21;100.00;112049.66;6275318;22;20234;-75
2022/01/20 07:39:48;;;;;;;16.60;12.43;;;7.50;77.90;;;-142.21;100.00;112049.66;6274305;22;20168;-77
2022/01/20 07:42:16;;;;;;;13.43;10.63;;;7.40;77.80;;;-142.21;100.00;112049.66;6275065;22;20435;-81
2022/01/20 07:44:45;;;;;;;11.33;10.00;;;7.40;78.20;;;-142.21;100.00;112049.66;6274343;22;20726;-80
2022/01/20 07:47:12;;;;;;;12.48;10.23;;;7.40;77.90;;;-142.21;100.00;112049.66;6275619;22;20400;-80
2022/01/20 07:49:39;;;;;;;11.37;10.00;;;7.50;78.00;;;-142.21;100.00;112049.66;6274709;22;20486;-79
2022/01/20 07:52:07;;;;;;;11.37;10.10;;;7.50;77.70;;;-142.21;100.00;112049.66;6276730;22;20399;-80
2022/01/20 07:54:34;;;;;;;14.20;10.57;;;7.50;78.10;;;-142.21;100.00;112049.66;6276880;22;20391;-75
2022/01/20 07:57:04;;;;;;;14.20;9.93;;;7.40;78.00;;;-142.21;100.00;112049.66;6276343;22;20411;-78
2022/01/20 07:59:31;;;;;;;13.63;10.60;;;7.50;77.70;;;-142.21;100.00;112049.66;6276864;22;20439;-75
2022/01/20 08:02:00;;;;;;;14.07;10.68;;;7.50;77.70;;;-142.21;100.00;112049.66;6276695;22;20176;-76
2022/01/20 08:04:28;;;;;;;11.52;10.05;;;7.50;77.70;;;-142.21;100.00;112049.66;6277245;22;20176;-76
2022/01/20 08:06:55;;;;;;;11.37;9.60;;;7.60;77.60;;;-142.21;100.00;112049.66;6277649;22;20475;-73
2022/01/20 08:09:23;;;;;;;14.80;9.83;;;7.60;77.70;;;-142.21;100.00;112049.66;6277617;22;20418;-77
2022/01/20 08:11:51;;;;;;;13.23;9.70;;;7.50;77.70;;;-142.21;100.00;112049.66;6277104;22;20407;-77
2022/01/20 08:14:18;;;;;;;13.13;11.60;;;7.50;77.60;;;-142.21;100.00;112049.66;6276580;22;20438;-80
2022/01/20 08:16:46;;;;;;;12.13;9.73;;;7.50;77.60;;;-142.21;100.00;112049.66;6277057;22;20492;-78
2022/01/20 08:19:15;;;;;;;16.67;10.50;;;7.50;77.80;;;-142.21;100.00;112049.66;6277030;22;20392;-78
2022/01/20 08:21:42;;;;;;;12.80;10.13;;;7.40;77.80;;;-142.21;100.00;112049.66;6275816;22;20443;-79
2022/01/20 08:24:09;;;;;;;14.75;10.95;;;7.40;78.10;;;-142.21;100.00;112049.66;6276675;22;20407;-77
2022/01/20 08:26:37;;;;;;;12.77;10.30;;;7.50;78.00;;;-142.21;100.00;112049.66;6276841;22;20629;-79
2022/01/20 08:29:04;;;;;;;12.70;10.83;;;7.50;78.90;;;-142.21;100.00;112049.66;6276485;22;20415;-79
2022/01/20 08:31:31;;;;;;;13.43;10.30;;;7.60;77.90;;;-142.21;100.00;112049.66;6276939;22;20492;-77
2022/01/20 08:33:59;;;;;;;12.63;10.27;;;7.60;77.70;;;-142.21;100.00;112049.66;6277240;22;20746;-79
2022/01/20 08:36:27;;;;;;;13.43;9.60;;;7.70;77.60;;;-142.21;100.00;112049.66;6276871;22;20938;-80
2022/01/20 08:38:55;;;;;;;12.57;10.47;;;7.60;77.40;;;-142.21;100.00;112049.66;6277079;22;20403;-80
2022/01/20 08:41:22;;;;;;;14.53;10.40;;;7.60;77.70;;;-142.21;100.00;112049.66;6275777;22;20460;-76
2022/01/20 08:43:50;;;;;;;12.40;9.93;;;7.60;77.50;;;-142.21;100.00;112049.66;6277038;22;20710;-79
2022/01/20 08:46:20;;;;;;;11.70;9.63;;;7.60;77.60;;;-142.21;100.00;112049.66;6276513;22;20403;-78
2022/01/20 08:48:48;;;;;;;11.33;9.37;;;7.60;77.40;;;-142.21;100.00;112049.66;6277560;22;20399;-80
2022/01/20 08:51:15;;;;;;;13.67;11.30;;;7.70;77.50;;;-142.21;100.00;112049.66;6250423;22;20949;-79
2022/01/20 08:53:44;;;;;;;14.00;11.00;;;7.80;77.00;;;-142.21;100.00;112049.66;6276987;22;20433;-77
2022/01/20 08:56:12;;;;;;;13.20;9.90;;;7.90;76.70;;;-142.21;100.00;112049.66;6276339;22;20439;-79
2022/01/20 08:58:40;;;;;;;13.53;9.90;;;8.10;76.40;;;-142.21;100.00;112049.66;6276723;22;20415;-78
2022/01/20 09:01:07;;;;;;;14.43;9.30;;;8.20;75.50;;;-142.21;100.00;112049.66;6277061;22;20396;-77
2022/01/20 09:03:35;;;;;;;10.90;9.50;;;8.10;75.40;;;-142.21;100.00;112049.66;6276191;22;20420;-77
2022/01/20 09:06:06;;;;;;;13.38;10.15;;;8.10;75.40;;;-142.21;100.00;112049.66;6277126;22;20427;-75
2022/01/20 09:08:33;;;;;;;14.90;9.07;;;8.10;75.60;;;-142.21;100.00;112049.66;6276709;22;20165;-80
2022/01/20 09:11:06;;;;;;;16.37;10.63;;;8.20;75.60;;;-142.21;100.00;112049.66;6277126;22;20431;-76
2022/01/20 09:16:18;;;;;;;13.23;9.00;;;8.30;75.00;;;-142.21;100.00;112049.66;6296602;22;20490;-77
2022/01/20 09:18:46;;;;;;;12.37;10.37;;;8.30;75.10;;;-142.21;100.00;112049.66;6276906;22;20411;-81
2022/01/20 09:21:20;;;;;;;11.05;9.30;;;8.30;75.00;;;-142.21;100.00;112049.66;6276796;22;20934;-81
2022/01/20 09:23:47;;;;;;;10.43;9.03;;;8.20;75.10;;;-142.21;100.00;112049.66;6274702;22;20495;-80
2022/01/20 09:26:18;;;;;;;12.43;9.40;;;8.30;74.90;;;-142.21;100.00;112049.66;6277520;22;20380;-78
2022/01/20 09:28:51;;;;;;;13.50;9.37;;;8.40;74.70;;;-142.21;100.00;112049.66;6276482;22;20387;-81
2022/01/20 09:31:21;;;;;;;16.27;10.23;;;8.40;74.40;;;-142.21;100.00;112049.66;6277110;22;20403;-79
2022/01/20 09:33:56;;;;;;;11.93;8.57;;;8.80;74.40;;;-142.21;100.00;112049.66;6275859;22;20899;-80
2022/01/20 09:36:24;;;;;;;13.20;8.20;;;10.30;70.00;;;-142.21;100.00;112049.66;6277591;22;20480;-76
2022/01/20 09:38:52;;;;;;;11.70;7.87;;;10.50;67.90;;;-142.21;100.00;112049.66;6277411;22;20399;-78
2022/01/20 09:41:20;;;;;;;12.47;8.23;;;10.40;67.20;;;-142.21;100.00;112049.66;6279120;22;20759;-75
2022/01/20 09:43:48;;;;;;;9.30;7.73;;;10.00;66.80;;;-142.21;100.00;112049.66;6275753;22;20463;-76
2022/01/20 09:46:15;;;;;;;8.97;6.63;;;10.10;68.10;;;-142.21;100.00;112049.66;6275529;22;20791;-80
2022/01/20 09:48:43;;;;;;;12.67;8.00;;;10.20;67.70;;;-142.21;100.00;112049.66;6277650;22;20394;-76
2022/01/20 09:51:13;;;;;;;12.07;9.00;;;10.10;67.50;;;-142.21;100.00;112049.66;6277421;22;20410;-75
2022/01/20 09:53:40;;;;;;;12.07;8.57;;;10.40;67.40;;;-142.21;100.00;112049.66;6276833;22;20375;-78
2022/01/20 09:56:08;;;;;;;15.73;9.43;;;10.70;66.30;;;-142.21;100.00;112049.66;6276424;22;20772;-75
2022/01/20 09:58:36;;;;;;;11.17;7.80;;;11.00;65.70;;;-142.21;100.00;112049.66;6276869;22;20430;-75
2022/01/20 10:01:10;;;;;;;12.30;8.90;;;10.90;64.70;;;-142.21;100.00;112049.66;6275265;22;20431;-75
2022/01/20 10:03:39;;;;;;;14.93;8.00;;;10.70;65.20;;;-142.21;100.00;112049.66;6275976;22;20404;-75
2022/01/20 10:06:07;;;;;;;11.13;7.13;;;10.90;65.50;;;-142.21;100.00;112049.66;6275406;22;20898;-75
2022/01/20 10:08:35;;;;;;;12.27;7.47;;;12.50;62.90;;;-142.21;100.00;112049.66;6274901;22;20903;-76
2022/01/20 10:11:10;;;;;;;10.53;7.00;;;12.40;61.10;;;-142.21;100.00;112049.66;6274790;22;20690;-79
2022/01/20 10:13:42;;;;;;;11.43;6.93;;;12.40;60.50;;;-142.21;100.00;112049.66;6276006;22;20383;-75
2022/01/20 10:16:12;;;;;;;11.27;7.57;;;12.20;59.50;;;-142.21;100.00;112049.66;6248823;22;20813;-75
2022/01/20 10:18:49;;;;;;;12.50;8.03;;;11.80;60.70;;;-142.21;100.00;112049.66;6276757;22;20384;-75
2022/01/20 10:21:18;;;;;;;12.27;7.87;;;11.10;61.00;;;-142.21;100.00;112049.66;6275705;22;20382;-76
2022/01/20 10:23:49;;;;;;;10.77;7.80;;;10.70;62.90;;;-142.21;100.00;112049.66;6275304;22;20426;-77
2022/01/20 10:26:19;;;;;;;15.17;8.83;;;10.20;63.90;;;-142.21;100.00;112049.66;6274644;22;20876;-75
2022/01/20 10:28:55;;;;;;;11.33;8.67;;;10.00;65.10;;;-142.21;100.00;112049.66;6275382;22;20469;-77
2022/01/20 10:31:42;;;;;;;11.03;7.70;;;9.70;67.00;;;-142.21;100.00;112049.66;6274769;22;20398;-75
2022/01/20 10:34:22;;;;;;;11.90;7.73;;;9.40;68.10;;;-142.21;100.00;112049.66;6276057;22;20372;-76
2022/01/20 10:36:54;;;;;;;11.70;8.93;;;9.30;68.90;;;-142.21;100.00;112049.66;6275886;22;20431;-75
2022/01/20 10:39:43;;;;;;;15.33;8.53;;;9.20;69.60;;;-142.21;100.00;112049.66;6275022;22;20482;-75
2022/01/20 10:42:13;;;;;;;10.93;7.87;;;9.10;69.60;;;-142.21;100.00;112049.66;6275520;22;20779;-76
2022/01/20 10:44:45;;;;;;;11.03;8.33;;;9.10;69.90;;;-142.21;100.00;112049.66;6275630;22;20398;-79
2022/01/20 10:47:17;;;;;;;15.10;9.07;;;9.10;70.00;;;-142.21;100.00;112049.66;6274701;22;20485;-80
2022/01/20 10:49:47;;;;;;;15.27;10.87;;;9.10;70.10;;;-142.21;100.00;112049.66;6275428;22;20398;-76
2022/01/20 10:52:19;;;;;;;16.07;9.33;;;9.10;70.30;;;-142.21;100.00;112049.66;6276169;22;20391;-75
2022/01/20 10:54:51;;;;;;;18.93;16.40;;;9.00;70.30;;;-142.21;100.00;112049.66;6275920;22;20494;-76
2022/01/20 10:57:27;;;;;;;18.40;9.53;;;8.90;70.80;;;-142.21;100.00;112049.66;6275464;22;20447;-75
2022/01/20 11:00:00;;;;;;;15.23;8.97;;;8.90;71.20;;;-142.21;100.00;112049.66;6274801;22;20397;-75
2022/01/20 11:02:30;;;;;;;12.47;9.07;;;8.90;71.20;;;-142.21;100.00;112049.66;6274291;22;20695;-75